sensor_id;sensor_type;location;lat;lon;timestamp;temperature;humidity
8709;DHT22;4391;48.678;9.280;2023-06-24T00:02:26;14.70;1.00
8709;DHT22;4391;48.678;9.280;2023-06-24T00:04:54;14.60;1.00
8709;DHT22;4391;48.678;9.280;2023-06-24T00:07:25;14.60;1.00
8709;DHT22;4391;48.678;9.280;2023-06-24T00:09:52;14.50;1.00
8709;DHT22;4391;48.678;9.280;2023-06-24T00:12:19;14.50;1.00
8709;DHT22;4391;48.678;9.280;2023-06-24T00:14:46;14.50;1.00
8709;DHT22;4391;48.678;9.280;2023-06-24T00:17:13;14.50;1.00
8709;DHT22;4391;48.678;9.280;2023-06-24T00:19:42;14.50;1.00
8709;DHT22;4391;48.678;9.280;2023-06-24T00:22:11;14.50;1.00
8709;DHT22;4391;48.678;9.280;2023-06-24T00:24:38;14.50;1.00
8709;DHT22;4391;48.678;9.280;2023-06-24T00:27:05;14.40;1.00
8709;DHT22;4391;48.678;9.280;2023-06-24T00:29:32;14.40;1.00
8709;DHT22;4391;48.678;9.280;2023-06-24T00:31:59;14.40;1.00
8709;DHT22;4391;48.678;9.280;2023-06-24T00:34:26;14.40;1.00
8709;DHT22;4391;48.678;9.280;2023-06-24T00:36:53;14.40;1.00
8709;DHT22;4391;48.678;9.280;2023-06-24T00:39:22;14.30;1.00
8709;DHT22;4391;48.678;9.280;2023-06-24T00:41:49;14.20;1.00
8709;DHT22;4391;48.678;9.280;2023-06-24T00:44:16;14.30;2.20
8709;DHT22;4391;48.678;9.280;2023-06-24T00:46:43;14.20;1.00
8709;DHT22;4391;48.678;9.280;2023-06-24T00:49:09;14.20;7.40
8709;DHT22;4391;48.678;9.280;2023-06-24T00:51:41;14.10;21.20
8709;DHT22;4391;48.678;9.280;2023-06-24T00:54:16;14.10;14.90
8709;DHT22;4391;48.678;9.280;2023-06-24T00:56:45;14.10;13.90
8709;DHT22;4391;48.678;9.280;2023-06-24T00:59:13;14.10;14.20
8709;DHT22;4391;48.678;9.280;2023-06-24T01:01:41;14.00;16.80
8709;DHT22;4391;48.678;9.280;2023-06-24T01:04:10;14.00;19.20
8709;DHT22;4391;48.678;9.280;2023-06-24T01:06:37;14.00;18.60
8709;DHT22;4391;48.678;9.280;2023-06-24T01:09:09;13.90;22.20
8709;DHT22;4391;48.678;9.280;2023-06-24T01:11:36;13.90;31.30
8709;DHT22;4391;48.678;9.280;2023-06-24T01:14:04;13.90;25.80
8709;DHT22;4391;48.678;9.280;2023-06-24T01:16:36;13.90;22.90
8709;DHT22;4391;48.678;9.280;2023-06-24T01:19:12;13.90;35.80
8709;DHT22;4391;48.678;9.280;2023-06-24T01:22:00;13.90;39.70
8709;DHT22;4391;48.678;9.280;2023-06-24T01:24:47;13.90;37.40
8709;DHT22;4391;48.678;9.280;2023-06-24T01:27:32;13.80;43.00
8709;DHT22;4391;48.678;9.280;2023-06-24T01:30:19;13.80;50.30
8709;DHT22;4391;48.678;9.280;2023-06-24T01:32:53;13.70;50.20
8709;DHT22;4391;48.678;9.280;2023-06-24T01:35:23;13.70;54.90
8709;DHT22;4391;48.678;9.280;2023-06-24T01:37:53;13.70;59.00
8709;DHT22;4391;48.678;9.280;2023-06-24T01:40:26;13.70;59.60
8709;DHT22;4391;48.678;9.280;2023-06-24T01:42:56;13.80;55.80
8709;DHT22;4391;48.678;9.280;2023-06-24T01:45:25;13.80;51.40
8709;DHT22;4391;48.678;9.280;2023-06-24T01:47:59;13.80;59.00
8709;DHT22;4391;48.678;9.280;2023-06-24T01:50:27;13.60;62.70
8709;DHT22;4391;48.678;9.280;2023-06-24T01:52:56;13.60;67.80
8709;DHT22;4391;48.678;9.280;2023-06-24T01:55:25;13.50;69.60
8709;DHT22;4391;48.678;9.280;2023-06-24T01:57:54;13.50;74.70
8709;DHT22;4391;48.678;9.280;2023-06-24T02:00:24;13.50;85.70
8709;DHT22;4391;48.678;9.280;2023-06-24T02:02:54;13.50;78.00
8709;DHT22;4391;48.678;9.280;2023-06-24T02:05:21;13.40;75.50
8709;DHT22;4391;48.678;9.280;2023-06-24T02:07:50;13.40;90.00
8709;DHT22;4391;48.678;9.280;2023-06-24T02:10:19;13.40;91.80
8709;DHT22;4391;48.678;9.280;2023-06-24T02:12:48;13.40;95.60
8709;DHT22;4391;48.678;9.280;2023-06-24T02:15:17;13.30;93.10
8709;DHT22;4391;48.678;9.280;2023-06-24T02:17:45;13.20;94.40
8709;DHT22;4391;48.678;9.280;2023-06-24T02:20:15;13.30;93.60
8709;DHT22;4391;48.678;9.280;2023-06-24T02:22:44;13.30;94.60
8709;DHT22;4391;48.678;9.280;2023-06-24T02:25:11;13.30;94.00
8709;DHT22;4391;48.678;9.280;2023-06-24T02:27:39;13.20;93.00
8709;DHT22;4391;48.678;9.280;2023-06-24T02:30:08;13.10;95.50
8709;DHT22;4391;48.678;9.280;2023-06-24T02:32:36;13.10;95.70
8709;DHT22;4391;48.678;9.280;2023-06-24T02:35:04;13.10;97.50
8709;DHT22;4391;48.678;9.280;2023-06-24T02:37:34;13.10;99.00
8709;DHT22;4391;48.678;9.280;2023-06-24T02:40:01;13.00;99.90
8709;DHT22;4391;48.678;9.280;2023-06-24T02:42:29;13.00;99.90
8709;DHT22;4391;48.678;9.280;2023-06-24T02:44:56;13.00;99.90
8709;DHT22;4391;48.678;9.280;2023-06-24T02:47:24;12.90;99.90
8709;DHT22;4391;48.678;9.280;2023-06-24T02:49:52;12.90;99.90
8709;DHT22;4391;48.678;9.280;2023-06-24T02:52:20;12.80;99.90
8709;DHT22;4391;48.678;9.280;2023-06-24T02:54:49;12.80;99.90
8709;DHT22;4391;48.678;9.280;2023-06-24T02:57:16;12.90;99.90
8709;DHT22;4391;48.678;9.280;2023-06-24T02:59:45;12.80;99.90
8709;DHT22;4391;48.678;9.280;2023-06-24T03:02:13;12.80;99.90
8709;DHT22;4391;48.678;9.280;2023-06-24T03:04:42;12.80;99.90
8709;DHT22;4391;48.678;9.280;2023-06-24T03:07:10;12.70;99.90
8709;DHT22;4391;48.678;9.280;2023-06-24T03:09:37;12.70;99.90
8709;DHT22;4391;48.678;9.280;2023-06-24T03:12:07;12.70;99.90
8709;DHT22;4391;48.678;9.280;2023-06-24T03:14:34;12.60;99.90
8709;DHT22;4391;48.678;9.280;2023-06-24T03:17:01;12.60;99.90
8709;DHT22;4391;48.678;9.280;2023-06-24T03:19:28;12.60;99.90
8709;DHT22;4391;48.678;9.280;2023-06-24T03:21:55;12.70;99.90
8709;DHT22;4391;48.678;9.280;2023-06-24T03:24:24;12.70;99.90
8709;DHT22;4391;48.678;9.280;2023-06-24T03:26:51;12.60;99.90
8709;DHT22;4391;48.678;9.280;2023-06-24T03:29:23;12.60;99.90
8709;DHT22;4391;48.678;9.280;2023-06-24T03:31:50;12.60;99.90
8709;DHT22;4391;48.678;9.280;2023-06-24T03:34:17;12.60;99.90
8709;DHT22;4391;48.678;9.280;2023-06-24T03:36:44;12.60;99.90
8709;DHT22;4391;48.678;9.280;2023-06-24T03:39:10;12.60;99.90
8709;DHT22;4391;48.678;9.280;2023-06-24T03:41:37;12.60;99.90
8709;DHT22;4391;48.678;9.280;2023-06-24T03:44:05;12.60;99.90
8709;DHT22;4391;48.678;9.280;2023-06-24T03:46:33;12.70;99.90
8709;DHT22;4391;48.678;9.280;2023-06-24T03:49:00;12.70;99.90
8709;DHT22;4391;48.678;9.280;2023-06-24T03:51:28;12.70;99.90
8709;DHT22;4391;48.678;9.280;2023-06-24T03:53:56;12.80;99.90
8709;DHT22;4391;48.678;9.280;2023-06-24T03:56:23;12.80;99.90
8709;DHT22;4391;48.678;9.280;2023-06-24T03:58:50;12.80;99.90
8709;DHT22;4391;48.678;9.280;2023-06-24T04:01:17;12.90;99.90
8709;DHT22;4391;48.678;9.280;2023-06-24T04:03:46;12.90;99.90
8709;DHT22;4391;48.678;9.280;2023-06-24T04:06:13;13.00;99.90
8709;DHT22;4391;48.678;9.280;2023-06-24T04:08:40;13.10;99.90
8709;DHT22;4391;48.678;9.280;2023-06-24T04:11:08;13.10;99.90
8709;DHT22;4391;48.678;9.280;2023-06-24T04:13:35;13.20;99.90
8709;DHT22;4391;48.678;9.280;2023-06-24T04:16:02;13.30;99.90
8709;DHT22;4391;48.678;9.280;2023-06-24T04:18:29;13.40;93.10
8709;DHT22;4391;48.678;9.280;2023-06-24T04:20:57;13.50;85.90
8709;DHT22;4391;48.678;9.280;2023-06-24T04:23:24;13.60;79.40
8709;DHT22;4391;48.678;9.280;2023-06-24T04:25:50;13.70;77.30
8709;DHT22;4391;48.678;9.280;2023-06-24T04:28:17;13.80;70.50
8709;DHT22;4391;48.678;9.280;2023-06-24T04:30:44;13.90;59.90
8709;DHT22;4391;48.678;9.280;2023-06-24T04:33:11;14.00;58.00
8709;DHT22;4391;48.678;9.280;2023-06-24T04:35:38;14.10;51.30
8709;DHT22;4391;48.678;9.280;2023-06-24T04:38:06;14.20;41.60
8709;DHT22;4391;48.678;9.280;2023-06-24T04:40:32;14.30;30.20
8709;DHT22;4391;48.678;9.280;2023-06-24T04:42:59;14.40;22.20
8709;DHT22;4391;48.678;9.280;2023-06-24T04:45:26;14.40;13.60
8709;DHT22;4391;48.678;9.280;2023-06-24T04:47:53;14.60;3.40
8709;DHT22;4391;48.678;9.280;2023-06-24T04:50:20;14.60;1.00
8709;DHT22;4391;48.678;9.280;2023-06-24T04:52:52;14.70;1.00
8709;DHT22;4391;48.678;9.280;2023-06-24T04:55:21;14.80;1.00
8709;DHT22;4391;48.678;9.280;2023-06-24T04:57:48;14.80;1.00
8709;DHT22;4391;48.678;9.280;2023-06-24T05:00:15;14.90;1.00
8709;DHT22;4391;48.678;9.280;2023-06-24T05:02:42;15.00;1.00
8709;DHT22;4391;48.678;9.280;2023-06-24T05:05:09;15.10;1.00
8709;DHT22;4391;48.678;9.280;2023-06-24T05:07:36;15.20;1.00
8709;DHT22;4391;48.678;9.280;2023-06-24T05:10:03;15.40;1.00
8709;DHT22;4391;48.678;9.280;2023-06-24T05:12:31;15.50;1.00
8709;DHT22;4391;48.678;9.280;2023-06-24T05:14:58;15.50;1.00
8709;DHT22;4391;48.678;9.280;2023-06-24T05:17:25;15.70;1.00
8709;DHT22;4391;48.678;9.280;2023-06-24T05:19:52;15.80;1.00
8709;DHT22;4391;48.678;9.280;2023-06-24T05:22:19;15.90;1.00
8709;DHT22;4391;48.678;9.280;2023-06-24T05:24:46;15.90;1.00
8709;DHT22;4391;48.678;9.280;2023-06-24T05:27:12;16.00;1.00
8709;DHT22;4391;48.678;9.280;2023-06-24T05:29:41;16.10;1.00
8709;DHT22;4391;48.678;9.280;2023-06-24T05:32:08;16.20;1.00
8709;DHT22;4391;48.678;9.280;2023-06-24T05:34:34;16.20;1.00
8709;DHT22;4391;48.678;9.280;2023-06-24T05:37:01;16.30;1.00
8709;DHT22;4391;48.678;9.280;2023-06-24T05:39:29;16.40;1.00
8709;DHT22;4391;48.678;9.280;2023-06-24T05:41:56;16.50;1.00
8709;DHT22;4391;48.678;9.280;2023-06-24T05:44:23;16.60;1.00
8709;DHT22;4391;48.678;9.280;2023-06-24T05:46:51;16.70;1.00
8709;DHT22;4391;48.678;9.280;2023-06-24T05:49:18;16.80;1.00
8709;DHT22;4391;48.678;9.280;2023-06-24T05:51:45;17.00;99.90
8709;DHT22;4391;48.678;9.280;2023-06-24T05:54:11;17.10;99.90
8709;DHT22;4391;48.678;9.280;2023-06-24T05:56:38;17.20;99.90
8709;DHT22;4391;48.678;9.280;2023-06-24T05:59:05;17.40;99.90
8709;DHT22;4391;48.678;9.280;2023-06-24T06:01:32;17.50;99.90
8709;DHT22;4391;48.678;9.280;2023-06-24T06:04:00;17.60;1.00
8709;DHT22;4391;48.678;9.280;2023-06-24T06:06:27;17.70;1.00
8709;DHT22;4391;48.678;9.280;2023-06-24T06:08:54;17.80;1.00
8709;DHT22;4391;48.678;9.280;2023-06-24T06:11:21;17.90;99.90
8709;DHT22;4391;48.678;9.280;2023-06-24T06:13:47;17.90;1.00
8709;DHT22;4391;48.678;9.280;2023-06-24T06:16:14;17.80;1.00
8709;DHT22;4391;48.678;9.280;2023-06-24T06:18:44;17.90;99.90
8709;DHT22;4391;48.678;9.280;2023-06-24T06:21:12;18.00;1.00
8709;DHT22;4391;48.678;9.280;2023-06-24T06:23:39;18.10;1.00
8709;DHT22;4391;48.678;9.280;2023-06-24T06:26:06;18.20;99.90
8709;DHT22;4391;48.678;9.280;2023-06-24T06:28:33;18.30;99.90
8709;DHT22;4391;48.678;9.280;2023-06-24T06:31:00;18.50;99.90
8709;DHT22;4391;48.678;9.280;2023-06-24T06:33:27;18.60;99.90
8709;DHT22;4391;48.678;9.280;2023-06-24T06:35:53;18.60;99.90
8709;DHT22;4391;48.678;9.280;2023-06-24T06:38:22;18.70;1.00
8709;DHT22;4391;48.678;9.280;2023-06-24T06:40:49;18.80;1.00
8709;DHT22;4391;48.678;9.280;2023-06-24T06:43:16;18.90;1.00
8709;DHT22;4391;48.678;9.280;2023-06-24T06:45:43;19.00;1.00
8709;DHT22;4391;48.678;9.280;2023-06-24T06:48:09;19.10;1.00
8709;DHT22;4391;48.678;9.280;2023-06-24T06:50:36;19.10;1.00
8709;DHT22;4391;48.678;9.280;2023-06-24T06:53:03;19.20;1.00
8709;DHT22;4391;48.678;9.280;2023-06-24T06:55:31;19.30;1.00
8709;DHT22;4391;48.678;9.280;2023-06-24T06:57:58;19.50;1.00
8709;DHT22;4391;48.678;9.280;2023-06-24T07:00:25;19.70;99.90
8709;DHT22;4391;48.678;9.280;2023-06-24T07:02:51;19.90;99.90
8709;DHT22;4391;48.678;9.280;2023-06-24T07:05:18;20.10;99.90
8709;DHT22;4391;48.678;9.280;2023-06-24T07:07:46;20.20;99.90
8709;DHT22;4391;48.678;9.280;2023-06-24T07:10:15;20.30;99.90
8709;DHT22;4391;48.678;9.280;2023-06-24T07:12:44;20.40;99.90
8709;DHT22;4391;48.678;9.280;2023-06-24T07:15:11;20.50;99.90
8709;DHT22;4391;48.678;9.280;2023-06-24T07:17:37;20.60;99.90
8709;DHT22;4391;48.678;9.280;2023-06-24T07:20:05;20.70;99.90
8709;DHT22;4391;48.678;9.280;2023-06-24T07:22:32;20.70;99.90
8709;DHT22;4391;48.678;9.280;2023-06-24T07:24:59;20.90;99.90
8709;DHT22;4391;48.678;9.280;2023-06-24T07:27:26;21.00;99.90
8709;DHT22;4391;48.678;9.280;2023-06-24T07:29:54;21.20;99.90
8709;DHT22;4391;48.678;9.280;2023-06-24T07:32:20;21.50;99.90
8709;DHT22;4391;48.678;9.280;2023-06-24T07:34:47;21.60;99.90
8709;DHT22;4391;48.678;9.280;2023-06-24T07:37:14;21.80;99.90
8709;DHT22;4391;48.678;9.280;2023-06-24T07:39:41;22.10;99.90
8709;DHT22;4391;48.678;9.280;2023-06-24T07:42:08;22.30;99.90
8709;DHT22;4391;48.678;9.280;2023-06-24T07:44:35;22.40;99.90
8709;DHT22;4391;48.678;9.280;2023-06-24T07:47:06;22.50;99.90
8709;DHT22;4391;48.678;9.280;2023-06-24T07:49:33;22.80;99.90
8709;DHT22;4391;48.678;9.280;2023-06-24T07:52:00;22.80;99.90
8709;DHT22;4391;48.678;9.280;2023-06-24T07:54:27;22.90;99.90
8709;DHT22;4391;48.678;9.280;2023-06-24T07:56:54;22.90;99.90
8709;DHT22;4391;48.678;9.280;2023-06-24T07:59:21;22.90;99.90
8709;DHT22;4391;48.678;9.280;2023-06-24T08:01:48;23.10;99.90
8709;DHT22;4391;48.678;9.280;2023-06-24T08:04:16;23.30;99.90
8709;DHT22;4391;48.678;9.280;2023-06-24T08:06:43;23.40;99.90
8709;DHT22;4391;48.678;9.280;2023-06-24T08:09:10;23.70;99.90
8709;DHT22;4391;48.678;9.280;2023-06-24T08:11:37;23.90;99.90
8709;DHT22;4391;48.678;9.280;2023-06-24T08:14:04;24.20;99.90
8709;DHT22;4391;48.678;9.280;2023-06-24T08:16:30;24.20;99.90
8709;DHT22;4391;48.678;9.280;2023-06-24T08:18:57;24.50;99.90
8709;DHT22;4391;48.678;9.280;2023-06-24T08:23:53;24.60;99.90
8709;DHT22;4391;48.678;9.280;2023-06-24T08:26:20;24.80;99.90
8709;DHT22;4391;48.678;9.280;2023-06-24T08:29:06;25.20;99.90
8709;DHT22;4391;48.678;9.280;2023-06-24T08:34:54;26.10;99.90
8709;DHT22;4391;48.678;9.280;2023-06-24T08:37:21;26.40;99.90
8709;DHT22;4391;48.678;9.280;2023-06-24T08:39:49;26.70;99.90
8709;DHT22;4391;48.678;9.280;2023-06-24T08:42:16;26.90;99.90
8709;DHT22;4391;48.678;9.280;2023-06-24T08:48:39;27.60;99.90
8709;DHT22;4391;48.678;9.280;2023-06-24T08:51:09;28.00;99.90
8709;DHT22;4391;48.678;9.280;2023-06-24T08:53:38;28.10;99.90
8709;DHT22;4391;48.678;9.280;2023-06-24T08:56:06;28.00;99.90
8709;DHT22;4391;48.678;9.280;2023-06-24T08:58:33;27.90;99.90
8709;DHT22;4391;48.678;9.280;2023-06-24T09:01:00;28.30;99.90
8709;DHT22;4391;48.678;9.280;2023-06-24T09:03:28;28.40;99.90
8709;DHT22;4391;48.678;9.280;2023-06-24T09:05:54;28.60;99.90
8709;DHT22;4391;48.678;9.280;2023-06-24T09:08:21;28.90;99.90
8709;DHT22;4391;48.678;9.280;2023-06-24T09:10:53;28.90;99.90
8709;DHT22;4391;48.678;9.280;2023-06-24T09:13:27;29.00;99.90
8709;DHT22;4391;48.678;9.280;2023-06-24T09:16:02;29.30;99.90
8709;DHT22;4391;48.678;9.280;2023-06-24T09:18:34;29.10;99.90
8709;DHT22;4391;48.678;9.280;2023-06-24T09:21:01;28.50;99.90
8709;DHT22;4391;48.678;9.280;2023-06-24T09:23:28;28.10;99.90
8709;DHT22;4391;48.678;9.280;2023-06-24T09:25:56;27.90;99.90
8709;DHT22;4391;48.678;9.280;2023-06-24T09:28:27;27.80;99.90
8709;DHT22;4391;48.678;9.280;2023-06-24T09:31:07;28.10;99.90
8709;DHT22;4391;48.678;9.280;2023-06-24T09:33:34;28.50;99.90
8709;DHT22;4391;48.678;9.280;2023-06-24T09:36:02;28.70;99.90
8709;DHT22;4391;48.678;9.280;2023-06-24T09:38:34;29.20;99.90
8709;DHT22;4391;48.678;9.280;2023-06-24T09:41:03;29.50;99.90
8709;DHT22;4391;48.678;9.280;2023-06-24T09:43:33;30.10;99.90
8709;DHT22;4391;48.678;9.280;2023-06-24T09:46:01;30.20;99.90
8709;DHT22;4391;48.678;9.280;2023-06-24T09:48:28;30.20;99.90
8709;DHT22;4391;48.678;9.280;2023-06-24T09:50:56;30.30;99.90
8709;DHT22;4391;48.678;9.280;2023-06-24T09:53:25;30.40;99.90
8709;DHT22;4391;48.678;9.280;2023-06-24T09:55:52;30.60;99.90
8709;DHT22;4391;48.678;9.280;2023-06-24T09:58:20;30.50;99.90
8709;DHT22;4391;48.678;9.280;2023-06-24T10:00:49;30.40;99.90
8709;DHT22;4391;48.678;9.280;2023-06-24T10:03:16;29.60;99.90
8709;DHT22;4391;48.678;9.280;2023-06-24T10:05:43;29.10;99.90
8709;DHT22;4391;48.678;9.280;2023-06-24T10:08:13;29.30;99.90
8709;DHT22;4391;48.678;9.280;2023-06-24T10:10:40;30.00;99.90
8709;DHT22;4391;48.678;9.280;2023-06-24T10:13:07;30.40;99.90
8709;DHT22;4391;48.678;9.280;2023-06-24T10:15:35;30.90;99.90
8709;DHT22;4391;48.678;9.280;2023-06-24T10:18:32;31.50;99.90
8709;DHT22;4391;48.678;9.280;2023-06-24T10:21:00;32.00;99.90
8709;DHT22;4391;48.678;9.280;2023-06-24T10:23:30;32.20;99.90
8709;DHT22;4391;48.678;9.280;2023-06-24T10:25:58;32.40;99.90
8709;DHT22;4391;48.678;9.280;2023-06-24T10:28:25;32.80;99.90
8709;DHT22;4391;48.678;9.280;2023-06-24T10:30:54;33.30;99.90
8709;DHT22;4391;48.678;9.280;2023-06-24T10:33:24;33.40;99.90
8709;DHT22;4391;48.678;9.280;2023-06-24T10:35:51;34.00;99.90
8709;DHT22;4391;48.678;9.280;2023-06-24T10:38:18;34.50;99.90
8709;DHT22;4391;48.678;9.280;2023-06-24T10:40:49;34.70;99.90
8709;DHT22;4391;48.678;9.280;2023-06-24T10:43:27;34.20;99.90
8709;DHT22;4391;48.678;9.280;2023-06-24T10:45:55;33.50;99.90
8709;DHT22;4391;48.678;9.280;2023-06-24T10:48:24;32.90;99.90
8709;DHT22;4391;48.678;9.280;2023-06-24T10:50:51;32.90;99.90
8709;DHT22;4391;48.678;9.280;2023-06-24T10:53:18;33.80;99.90
8709;DHT22;4391;48.678;9.280;2023-06-24T10:55:45;34.60;99.90
8709;DHT22;4391;48.678;9.280;2023-06-24T10:58:16;35.20;99.90
8709;DHT22;4391;48.678;9.280;2023-06-24T11:00:43;35.50;99.90
8709;DHT22;4391;48.678;9.280;2023-06-24T11:03:12;35.70;99.90
8709;DHT22;4391;48.678;9.280;2023-06-24T11:05:41;35.30;99.90
8709;DHT22;4391;48.678;9.280;2023-06-24T11:08:10;35.50;99.90
8709;DHT22;4391;48.678;9.280;2023-06-24T11:10:46;35.70;99.90
8709;DHT22;4391;48.678;9.280;2023-06-24T11:13:13;36.50;99.90
8709;DHT22;4391;48.678;9.280;2023-06-24T11:15:40;37.10;99.90
8709;DHT22;4391;48.678;9.280;2023-06-24T11:18:08;37.60;99.90
8709;DHT22;4391;48.678;9.280;2023-06-24T11:20:36;38.00;99.90
8709;DHT22;4391;48.678;9.280;2023-06-24T11:23:08;38.20;99.90
8709;DHT22;4391;48.678;9.280;2023-06-24T11:25:39;37.90;99.90
8709;DHT22;4391;48.678;9.280;2023-06-24T11:28:13;37.60;99.90
8709;DHT22;4391;48.678;9.280;2023-06-24T11:43:00;38.80;99.90
8709;DHT22;4391;48.678;9.280;2023-06-24T11:45:27;38.40;99.90
8709;DHT22;4391;48.678;9.280;2023-06-24T11:48:02;37.30;99.90
8709;DHT22;4391;48.678;9.280;2023-06-24T11:50:30;37.70;99.90
8709;DHT22;4391;48.678;9.280;2023-06-24T11:52:57;38.20;99.90
8709;DHT22;4391;48.678;9.280;2023-06-24T11:55:25;39.20;99.90
8709;DHT22;4391;48.678;9.280;2023-06-24T11:57:58;40.30;99.90
8709;DHT22;4391;48.678;9.280;2023-06-24T12:00:26;41.10;99.90
8709;DHT22;4391;48.678;9.280;2023-06-24T12:02:55;40.50;99.90
8709;DHT22;4391;48.678;9.280;2023-06-24T12:05:26;40.30;99.90
8709;DHT22;4391;48.678;9.280;2023-06-24T12:07:58;39.90;99.90
8709;DHT22;4391;48.678;9.280;2023-06-24T12:10:25;38.50;99.90
8709;DHT22;4391;48.678;9.280;2023-06-24T12:12:52;38.40;99.90
8709;DHT22;4391;48.678;9.280;2023-06-24T12:15:20;39.00;99.90
8709;DHT22;4391;48.678;9.280;2023-06-24T12:17:47;38.90;99.90
8709;DHT22;4391;48.678;9.280;2023-06-24T12:20:14;39.70;99.90
8709;DHT22;4391;48.678;9.280;2023-06-24T12:22:42;40.30;99.90
8709;DHT22;4391;48.678;9.280;2023-06-24T12:25:09;41.10;99.90
8709;DHT22;4391;48.678;9.280;2023-06-24T12:27:37;41.70;99.90
8709;DHT22;4391;48.678;9.280;2023-06-24T12:30:06;42.40;99.90
8709;DHT22;4391;48.678;9.280;2023-06-24T12:32:35;41.80;99.90
8709;DHT22;4391;48.678;9.280;2023-06-24T12:35:02;42.60;99.90
8709;DHT22;4391;48.678;9.280;2023-06-24T12:37:30;42.70;99.90
8709;DHT22;4391;48.678;9.280;2023-06-24T12:39:58;43.30;99.90
8709;DHT22;4391;48.678;9.280;2023-06-24T12:42:25;43.00;99.90
8709;DHT22;4391;48.678;9.280;2023-06-24T12:44:52;42.80;99.90
8709;DHT22;4391;48.678;9.280;2023-06-24T12:47:18;43.00;99.90
8709;DHT22;4391;48.678;9.280;2023-06-24T12:49:47;43.50;99.90
8709;DHT22;4391;48.678;9.280;2023-06-24T12:52:14;43.60;99.90
8709;DHT22;4391;48.678;9.280;2023-06-24T12:54:41;43.30;99.90
8709;DHT22;4391;48.678;9.280;2023-06-24T12:57:08;42.90;99.90
8709;DHT22;4391;48.678;9.280;2023-06-24T12:59:35;42.30;99.90
8709;DHT22;4391;48.678;9.280;2023-06-24T13:02:01;41.90;99.90
8709;DHT22;4391;48.678;9.280;2023-06-24T13:04:29;42.30;99.90
8709;DHT22;4391;48.678;9.280;2023-06-24T13:06:57;42.90;99.90
8709;DHT22;4391;48.678;9.280;2023-06-24T13:09:24;42.90;99.90
8709;DHT22;4391;48.678;9.280;2023-06-24T13:11:50;43.60;99.90
8709;DHT22;4391;48.678;9.280;2023-06-24T13:14:17;43.60;99.90
8709;DHT22;4391;48.678;9.280;2023-06-24T13:16:44;43.30;99.90
8709;DHT22;4391;48.678;9.280;2023-06-24T13:19:11;43.80;99.90
8709;DHT22;4391;48.678;9.280;2023-06-24T13:21:38;44.20;99.90
8709;DHT22;4391;48.678;9.280;2023-06-24T13:24:07;44.40;99.90
8709;DHT22;4391;48.678;9.280;2023-06-24T13:26:34;44.30;99.90
8709;DHT22;4391;48.678;9.280;2023-06-24T13:29:01;44.80;99.90
8709;DHT22;4391;48.678;9.280;2023-06-24T13:31:28;44.90;99.90
8709;DHT22;4391;48.678;9.280;2023-06-24T13:33:55;44.80;99.90
8709;DHT22;4391;48.678;9.280;2023-06-24T13:36:31;44.30;99.90
8709;DHT22;4391;48.678;9.280;2023-06-24T13:39:00;43.00;98.60
8709;DHT22;4391;48.678;9.280;2023-06-24T13:41:29;42.50;96.30
8709;DHT22;4391;48.678;9.280;2023-06-24T13:43:58;42.10;94.60
8709;DHT22;4391;48.678;9.280;2023-06-24T13:46:24;42.60;95.90
8709;DHT22;4391;48.678;9.280;2023-06-24T13:48:51;41.80;92.30
8709;DHT22;4391;48.678;9.280;2023-06-24T13:51:18;41.00;88.20
8709;DHT22;4391;48.678;9.280;2023-06-24T13:53:46;41.00;89.00
8709;DHT22;4391;48.678;9.280;2023-06-24T13:56:13;41.70;91.50
8709;DHT22;4391;48.678;9.280;2023-06-24T13:58:41;42.60;94.70
8709;DHT22;4391;48.678;9.280;2023-06-24T14:01:08;43.60;97.50
8709;DHT22;4391;48.678;9.280;2023-06-24T14:03:34;43.10;95.40
8709;DHT22;4391;48.678;9.280;2023-06-24T14:06:02;43.20;95.60
8709;DHT22;4391;48.678;9.280;2023-06-24T14:08:30;43.50;96.30
8709;DHT22;4391;48.678;9.280;2023-06-24T14:10:58;43.40;95.30
8709;DHT22;4391;48.678;9.280;2023-06-24T14:13:25;43.40;94.80
8709;DHT22;4391;48.678;9.280;2023-06-24T14:15:53;43.50;94.10
8709;DHT22;4391;48.678;9.280;2023-06-24T14:18:20;43.80;94.80
8709;DHT22;4391;48.678;9.280;2023-06-24T14:20:47;43.90;93.80
8709;DHT22;4391;48.678;9.280;2023-06-24T14:23:14;42.40;86.30
8709;DHT22;4391;48.678;9.280;2023-06-24T14:25:41;41.90;84.00
8709;DHT22;4391;48.678;9.280;2023-06-24T14:28:08;41.60;80.30
8709;DHT22;4391;48.678;9.280;2023-06-24T14:30:35;41.90;82.20
8709;DHT22;4391;48.678;9.280;2023-06-24T14:33:03;42.40;84.90
8709;DHT22;4391;48.678;9.280;2023-06-24T14:35:30;42.70;87.40
8709;DHT22;4391;48.678;9.280;2023-06-24T14:37:57;42.40;84.50
8709;DHT22;4391;48.678;9.280;2023-06-24T14:40:23;42.60;85.70
8709;DHT22;4391;48.678;9.280;2023-06-24T14:42:50;41.70;77.80
8709;DHT22;4391;48.678;9.280;2023-06-24T14:45:17;40.70;69.90
8709;DHT22;4391;48.678;9.280;2023-06-24T14:47:44;40.90;71.00
8709;DHT22;4391;48.678;9.280;2023-06-24T14:50:12;40.80;70.40
8709;DHT22;4391;48.678;9.280;2023-06-24T14:52:39;40.30;66.00
8709;DHT22;4391;48.678;9.280;2023-06-24T14:55:06;40.00;64.10
8709;DHT22;4391;48.678;9.280;2023-06-24T14:57:34;39.20;58.20
8709;DHT22;4391;48.678;9.280;2023-06-24T15:00:01;38.10;52.20
8709;DHT22;4391;48.678;9.280;2023-06-24T15:02:28;36.80;44.80
8709;DHT22;4391;48.678;9.280;2023-06-24T15:04:55;36.00;40.20
8709;DHT22;4391;48.678;9.280;2023-06-24T15:07:23;35.20;35.80
8709;DHT22;4391;48.678;9.280;2023-06-24T15:09:50;34.00;29.00
8709;DHT22;4391;48.678;9.280;2023-06-24T15:12:16;33.10;25.00
8709;DHT22;4391;48.678;9.280;2023-06-24T15:14:43;32.30;22.20
8709;DHT22;4391;48.678;9.280;2023-06-24T15:17:12;31.90;21.00
8709;DHT22;4391;48.678;9.280;2023-06-24T15:19:41;31.50;19.50
8709;DHT22;4391;48.678;9.280;2023-06-24T15:22:08;31.20;19.00
8709;DHT22;4391;48.678;9.280;2023-06-24T15:24:37;30.80;18.00
8709;DHT22;4391;48.678;9.280;2023-06-24T15:27:04;30.80;19.40
8709;DHT22;4391;48.678;9.280;2023-06-24T15:29:30;30.70;19.40
8709;DHT22;4391;48.678;9.280;2023-06-24T15:31:57;30.50;19.70
8709;DHT22;4391;48.678;9.280;2023-06-24T15:34:24;30.40;19.90
8709;DHT22;4391;48.678;9.280;2023-06-24T15:36:51;30.40;20.50
8709;DHT22;4391;48.678;9.280;2023-06-24T15:39:18;30.10;20.30
8709;DHT22;4391;48.678;9.280;2023-06-24T15:41:47;30.00;20.30
8709;DHT22;4391;48.678;9.280;2023-06-24T15:44:15;29.70;19.50
8709;DHT22;4391;48.678;9.280;2023-06-24T15:46:42;29.20;17.80
8709;DHT22;4391;48.678;9.280;2023-06-24T15:49:12;29.00;17.80
8709;DHT22;4391;48.678;9.280;2023-06-24T15:51:39;28.90;17.70
8709;DHT22;4391;48.678;9.280;2023-06-24T15:54:06;28.90;19.20
8709;DHT22;4391;48.678;9.280;2023-06-24T15:56:33;28.90;20.10
8709;DHT22;4391;48.678;9.280;2023-06-24T15:59:01;28.80;19.50
8709;DHT22;4391;48.678;9.280;2023-06-24T16:01:28;28.70;19.70
8709;DHT22;4391;48.678;9.280;2023-06-24T16:03:55;28.70;20.60
8709;DHT22;4391;48.678;9.280;2023-06-24T16:06:21;28.60;21.30
8709;DHT22;4391;48.678;9.280;2023-06-24T16:08:48;28.60;21.10
8709;DHT22;4391;48.678;9.280;2023-06-24T16:11:16;28.60;22.30
8709;DHT22;4391;48.678;9.280;2023-06-24T16:13:43;28.60;23.70
8709;DHT22;4391;48.678;9.280;2023-06-24T16:16:11;28.50;23.30
8709;DHT22;4391;48.678;9.280;2023-06-24T16:18:38;28.50;23.60
8709;DHT22;4391;48.678;9.280;2023-06-24T16:21:05;28.30;23.80
8709;DHT22;4391;48.678;9.280;2023-06-24T16:23:31;28.20;23.60
8709;DHT22;4391;48.678;9.280;2023-06-24T16:25:58;28.10;23.80
8709;DHT22;4391;48.678;9.280;2023-06-24T16:28:26;27.90;23.40
8709;DHT22;4391;48.678;9.280;2023-06-24T16:30:53;27.50;22.00
8709;DHT22;4391;48.678;9.280;2023-06-24T16:33:21;27.50;22.40